Time;durP1;ratioP1;P1;durP2;ratioP2;P2;SDS_P1;SDS_P2;PMS_P1;PMS_P2;Temp;Humidity;BMP_temperature;BMP_pressure;BME280_temperature;BME280_humidity;BME280_pressure;Samples;Min_cycle;Max_cycle;Signal;HPM_P1;HPM_P2
2022/07/17 00:02:15;;;;;;;4.27;2.33;;;13.00;99.90;;;;;;5013500;28;20284;-81
2022/07/17 00:04:40;;;;;;;6.32;2.25;;;12.90;99.90;;;;;;4978758;28;20095;-81
2022/07/17 00:07:06;;;;;;;5.70;2.63;;;12.90;99.90;;;;;;5013081;28;20048;-81
2022/07/17 00:09:32;;;;;;;4.97;2.33;;;12.90;99.90;;;;;;5013483;28;20049;-81
2022/07/17 00:11:57;;;;;;;10.93;3.28;;;12.90;99.90;;;;;;5013099;28;20110;-81
2022/07/17 00:14:23;;;;;;;4.63;2.25;;;12.90;99.90;;;;;;5013838;28;20072;-80
2022/07/17 00:16:49;;;;;;;4.95;2.35;;;12.90;99.90;;;;;;5013596;28;20037;-80
2022/07/17 00:19:15;;;;;;;5.55;2.58;;;12.90;99.90;;;;;;4981070;28;20037;-80
2022/07/17 00:21:42;;;;;;;6.20;2.25;;;12.80;99.90;;;;;;4996958;28;20079;-81
2022/07/17 00:24:08;;;;;;;4.53;2.30;;;12.80;99.90;;;;;;5013454;28;20041;-80
2022/07/17 00:26:34;;;;;;;7.75;2.65;;;12.80;99.90;;;;;;5013410;28;20052;-80
2022/07/17 00:29:01;;;;;;;6.40;2.90;;;12.80;99.90;;;;;;5013445;28;20037;-80
2022/07/17 00:31:27;;;;;;;5.20;2.85;;;12.70;99.90;;;;;;5015542;28;20056;-80
2022/07/17 00:33:52;;;;;;;4.97;2.95;;;12.70;99.90;;;;;;4981482;28;20410;-81
2022/07/17 00:36:18;;;;;;;5.97;3.27;;;12.60;99.90;;;;;;4997102;28;20045;-81
2022/07/17 00:38:44;;;;;;;7.37;2.70;;;12.60;99.90;;;;;;5013368;28;20286;-80
2022/07/17 00:41:09;;;;;;;5.17;2.70;;;12.60;99.90;;;;;;5013377;28;20046;-80
2022/07/17 00:43:35;;;;;;;5.50;3.10;;;12.60;99.90;;;;;;5017314;28;20311;-80
2022/07/17 00:46:02;;;;;;;5.93;2.83;;;12.50;99.90;;;;;;4999770;28;20396;-81
2022/07/17 00:48:28;;;;;;;5.47;2.90;;;12.50;99.90;;;;;;4999492;28;20053;-80
2022/07/17 00:50:54;;;;;;;4.80;2.72;;;12.30;99.90;;;;;;5000501;28;20033;-80
2022/07/17 00:53:21;;;;;;;5.43;2.53;;;12.30;99.90;;;;;;5017136;28;20041;-80
2022/07/17 00:55:48;;;;;;;4.30;2.60;;;12.30;99.90;;;;;;5016705;28;20034;-79
2022/07/17 00:58:24;;;;;;;3.38;2.13;;;12.30;99.90;;;;;;5020623;28;20028;-80
2022/07/17 01:00:52;;;;;;;4.18;2.25;;;12.20;99.90;;;;;;5019672;28;20073;-81
2022/07/17 01:03:20;;;;;;;4.07;2.40;;;12.20;99.90;;;;;;5016902;28;20133;-80
2022/07/17 01:05:46;;;;;;;5.10;2.85;;;12.10;99.90;;;;;;5000188;28;20052;-81
2022/07/17 01:08:12;;;;;;;7.78;2.67;;;12.00;99.90;;;;;;5016752;28;20417;-81
2022/07/17 01:10:38;;;;;;;6.97;2.85;;;12.00;99.90;;;;;;5000331;28;20042;-81
2022/07/17 01:13:05;;;;;;;4.97;2.53;;;12.00;99.90;;;;;;5016272;28;20037;-80
2022/07/17 01:15:32;;;;;;;8.25;2.58;;;11.90;99.90;;;;;;5016770;28;20037;-80
2022/07/17 01:17:59;;;;;;;4.75;3.38;;;12.00;99.90;;;;;;5016469;28;20432;-81
2022/07/17 01:20:25;;;;;;;7.30;3.38;;;11.90;99.90;;;;;;5016832;28;20095;-80
2022/07/17 01:22:51;;;;;;;4.78;2.55;;;11.90;99.90;;;;;;5016396;28;20695;-81
2022/07/17 01:25:20;;;;;;;4.70;2.53;;;11.90;99.90;;;;;;5016199;28;20053;-80
2022/07/17 01:27:46;;;;;;;5.50;2.90;;;11.90;99.90;;;;;;5016573;28;20116;-80
2022/07/17 01:30:12;;;;;;;5.45;2.50;;;11.80;99.90;;;;;;5016313;28;20466;-81
2022/07/17 01:32:40;;;;;;;3.58;2.78;;;11.80;99.90;;;;;;4999637;28;20630;-82
2022/07/17 01:35:07;;;;;;;8.05;3.00;;;11.70;99.90;;;;;;5016119;28;20056;-79
2022/07/17 01:37:33;;;;;;;3.20;2.30;;;11.80;99.90;;;;;;5016537;28;20072;-81
2022/07/17 01:39:59;;;;;;;5.25;2.80;;;11.70;99.90;;;;;;4999578;28;20067;-81
2022/07/17 01:42:26;;;;;;;6.68;2.75;;;11.80;99.90;;;;;;5016771;28;20038;-80
2022/07/17 01:44:54;;;;;;;4.93;2.75;;;11.80;99.90;;;;;;5015697;28;20103;-80
2022/07/17 01:47:21;;;;;;;7.85;3.00;;;11.80;99.90;;;;;;5015686;28;20076;-80
2022/07/17 01:49:48;;;;;;;4.75;2.80;;;11.80;99.90;;;;;;5032596;28;20099;-80
2022/07/17 01:52:14;;;;;;;6.80;2.83;;;11.70;99.90;;;;;;5016366;28;20136;-80
2022/07/17 01:54:41;;;;;;;4.97;3.00;;;11.70;99.90;;;;;;5015844;28;20037;-80
2022/07/17 01:57:07;;;;;;;4.72;2.80;;;11.70;99.90;;;;;;4983596;28;20072;-81
2022/07/17 01:59:33;;;;;;;;;;;11.70;99.90;;;;;;5016880;28;20485;-80
2022/07/17 02:01:59;;;;;;;5.38;2.90;;;11.70;99.90;;;;;;5015721;28;19924;-81
2022/07/17 02:04:24;;;;;;;6.80;3.10;;;11.70;99.90;;;;;;4999693;28;20171;-80
2022/07/17 02:06:53;;;;;;;8.07;3.37;;;11.70;99.90;;;;;;5015742;28;20440;-80
2022/07/17 02:09:19;;;;;;;6.63;3.13;;;11.60;99.90;;;;;;4999385;28;20288;-80
2022/07/17 02:11:45;;;;;;;3.80;2.97;;;11.60;99.90;;;;;;4999056;28;20037;-80
2022/07/17 02:14:10;;;;;;;7.23;4.00;;;11.60;99.90;;;;;;5015633;28;20117;-80
2022/07/17 02:16:36;;;;;;;7.03;3.78;;;11.60;99.90;;;;;;5016028;28;20466;-80
2022/07/17 02:19:02;;;;;;;7.37;3.03;;;11.60;99.90;;;;;;5014980;28;20041;-81
2022/07/17 02:21:28;;;;;;;6.25;3.13;;;11.50;99.90;;;;;;5015479;28;20041;-80
2022/07/17 02:23:53;;;;;;;4.65;2.50;;;11.50;99.90;;;;;;4998808;28;20033;-81
2022/07/17 02:26:19;;;;;;;4.43;2.80;;;11.60;99.90;;;;;;4999019;28;20053;-81
2022/07/17 02:28:45;;;;;;;6.75;3.13;;;11.50;99.90;;;;;;5015601;28;20292;-80
2022/07/17 02:31:10;;;;;;;7.45;3.47;;;11.50;99.90;;;;;;4999028;28;20187;-80
2022/07/17 02:33:36;;;;;;;5.63;3.07;;;11.40;99.90;;;;;;4983161;28;20068;-81
2022/07/17 02:36:02;;;;;;;4.57;2.90;;;11.40;99.90;;;;;;5014788;28;20029;-80
2022/07/17 02:38:28;;;;;;;6.70;3.67;;;11.40;99.90;;;;;;5015369;28;20045;-80
2022/07/17 02:40:54;;;;;;;6.28;3.15;;;11.40;99.90;;;;;;4998659;28;20030;-80
2022/07/17 02:43:19;;;;;;;7.60;3.08;;;11.40;99.90;;;;;;5015015;28;20040;-81
2022/07/17 02:45:45;;;;;;;7.18;3.15;;;11.40;99.90;;;;;;5014373;28;20049;-81
2022/07/17 02:48:11;;;;;;;5.32;3.15;;;11.40;99.90;;;;;;4998338;28;20138;-81
2022/07/17 02:50:37;;;;;;;4.73;2.43;;;11.30;99.90;;;;;;5014810;28;20044;-81
2022/07/17 02:53:02;;;;;;;5.90;3.17;;;11.30;99.90;;;;;;4998006;28;20309;-80
2022/07/17 02:55:28;;;;;;;5.65;3.05;;;11.30;99.90;;;;;;5015081;28;20045;-81
2022/07/17 02:57:54;;;;;;;6.47;3.00;;;11.30;99.90;;;;;;4998288;28;20037;-81
2022/07/17 03:00:20;;;;;;;8.10;3.15;;;11.30;99.90;;;;;;5014936;28;20041;-81
2022/07/17 03:02:47;;;;;;;6.38;3.40;;;11.30;99.90;;;;;;4998133;28;20536;-81
2022/07/17 03:05:14;;;;;;;7.35;3.22;;;11.20;99.90;;;;;;4998549;28;20478;-81
2022/07/17 03:07:40;;;;;;;5.85;3.30;;;11.20;99.90;;;;;;5014485;28;20068;-81
2022/07/17 03:10:07;;;;;;;5.47;3.28;;;11.10;99.90;;;;;;4997027;28;20037;-80
2022/07/17 03:12:32;;;;;;;8.63;3.53;;;11.10;99.90;;;;;;5014596;28;20458;-81
2022/07/17 03:14:58;;;;;;;5.53;3.20;;;11.10;99.90;;;;;;5014252;28;20076;-81
2022/07/17 03:17:24;;;;;;;6.80;3.70;;;11.00;99.90;;;;;;4998012;28;20489;-81
2022/07/17 03:19:49;;;;;;;9.15;3.33;;;11.00;99.90;;;;;;5014066;28;20040;-81
2022/07/17 03:22:15;;;;;;;4.97;3.10;;;11.00;99.90;;;;;;4996702;28;20033;-81
2022/07/17 03:24:41;;;;;;;5.90;3.67;;;10.90;99.90;;;;;;4997282;28;20119;-81
2022/07/17 03:27:07;;;;;;;5.28;3.25;;;11.00;99.90;;;;;;5012608;28;20080;-81
2022/07/17 03:29:33;;;;;;;8.02;3.70;;;10.90;99.90;;;;;;5013990;28;20033;-80
2022/07/17 03:31:58;;;;;;;6.17;3.50;;;10.80;99.90;;;;;;5013903;28;20037;-81
2022/07/17 03:34:24;;;;;;;5.27;3.10;;;10.90;99.90;;;;;;5014241;28;20652;-81
2022/07/17 03:36:50;;;;;;;7.22;3.67;;;10.90;99.90;;;;;;4997409;28;20272;-81
2022/07/17 03:39:16;;;;;;;6.57;3.45;;;10.80;99.90;;;;;;5014126;28;20041;-80
2022/07/17 03:41:41;;;;;;;5.35;3.65;;;10.80;99.90;;;;;;4997864;28;20048;-80
2022/07/17 03:44:07;;;;;;;6.40;3.22;;;11.00;99.90;;;;;;5013840;28;20489;-80
2022/07/17 03:46:33;;;;;;;6.23;3.03;;;10.90;99.90;;;;;;5011440;28;20133;-81
2022/07/17 03:48:59;;;;;;;6.47;3.35;;;10.90;99.90;;;;;;4981208;28;20068;-80
2022/07/17 03:51:24;;;;;;;4.70;3.20;;;10.90;99.90;;;;;;5013601;28;20412;-80
2022/07/17 03:53:50;;;;;;;7.32;3.63;;;10.90;99.90;;;;;;5014150;28;20516;-81
2022/07/17 03:56:16;;;;;;;5.20;3.53;;;11.00;99.90;;;;;;4997307;28;20091;-81
2022/07/17 03:58:41;;;;;;;5.07;3.30;;;10.90;99.90;;;;;;5013911;28;20355;-80
2022/07/17 04:01:07;;;;;;;5.43;3.25;;;10.90;99.90;;;;;;4997369;28;20116;-81
2022/07/17 04:03:33;;;;;;;5.20;3.15;;;11.00;99.90;;;;;;5014365;28;20077;-81
2022/07/17 04:05:59;;;;;;;8.65;3.55;;;10.90;99.90;;;;;;5013779;28;20037;-80
2022/07/17 04:08:24;;;;;;;7.65;3.72;;;11.00;99.90;;;;;;4997831;28;20095;-80
2022/07/17 04:10:50;;;;;;;4.88;3.75;;;11.00;99.90;;;;;;4997473;28;20030;-80
2022/07/17 04:13:16;;;;;;;6.40;3.40;;;11.10;99.90;;;;;;5013009;28;20046;-81
2022/07/17 04:15:59;;;;;;;6.05;3.45;;;11.10;99.90;;;;;;5008964;28;20549;-81
2022/07/17 04:18:27;;;;;;;5.97;3.47;;;11.10;99.90;;;;;;5013633;28;20045;-80
2022/07/17 04:20:56;;;;;;;8.27;3.55;;;11.10;99.90;;;;;;5013535;28;20033;-81
2022/07/17 04:23:22;;;;;;;5.57;3.50;;;11.10;99.90;;;;;;5012807;28;20045;-81
2022/07/17 04:25:48;;;;;;;6.07;3.30;;;11.10;99.90;;;;;;5013742;28;20037;-82
2022/07/17 04:28:14;;;;;;;7.78;3.72;;;11.20;99.90;;;;;;4996661;28;20339;-80
2022/07/17 04:30:40;;;;;;;5.63;3.75;;;11.20;99.90;;;;;;5013847;28;20488;-81
2022/07/17 04:33:05;;;;;;;8.85;4.35;;;11.30;99.90;;;;;;5012651;28;20065;-80
2022/07/17 04:35:31;;;;;;;5.55;4.07;;;11.40;99.90;;;;;;5013548;28;20037;-81
2022/07/17 04:37:57;;;;;;;7.20;4.10;;;11.40;99.90;;;;;;4997180;28;20490;-80
2022/07/17 04:40:23;;;;;;;6.85;3.60;;;11.30;99.90;;;;;;5013585;28;20041;-81
2022/07/17 04:42:49;;;;;;;8.27;3.47;;;11.40;99.90;;;;;;5011223;28;20044;-81
2022/07/17 04:45:15;;;;;;;6.95;4.00;;;11.40;99.90;;;;;;4996309;28;20553;-80
2022/07/17 04:47:41;;;;;;;7.72;3.90;;;11.50;99.90;;;;;;5013449;28;20069;-81
2022/07/17 04:50:08;;;;;;;6.22;3.40;;;11.40;99.90;;;;;;5012573;28;20080;-81
2022/07/17 04:52:34;;;;;;;4.45;3.55;;;11.50;99.90;;;;;;4997097;28;20041;-81
2022/07/17 04:54:59;;;;;;;6.75;3.58;;;11.40;99.90;;;;;;5013064;28;20645;-81
2022/07/17 04:57:25;;;;;;;4.67;3.27;;;11.50;99.90;;;;;;4979703;28;20494;-81
2022/07/17 04:59:51;;;;;;;6.80;3.88;;;11.50;99.90;;;;;;5013217;28;20106;-81
2022/07/17 05:02:17;;;;;;;7.10;3.67;;;11.50;99.90;;;;;;4996245;28;20064;-81
2022/07/17 05:04:42;;;;;;;6.60;3.50;;;11.50;99.90;;;;;;4997272;28;20579;-80
2022/07/17 05:07:08;;;;;;;7.95;3.65;;;11.50;99.90;;;;;;5013028;28;20033;-81
2022/07/17 05:09:34;;;;;;;6.93;3.50;;;11.60;99.90;;;;;;4980997;28;20092;-81
2022/07/17 05:11:59;;;;;;;7.50;3.60;;;11.60;99.90;;;;;;5012896;28;20303;-81
2022/07/17 05:14:25;;;;;;;4.97;3.30;;;11.60;99.90;;;;;;5012713;28;20386;-81
2022/07/17 05:16:51;;;;;;;6.37;3.23;;;11.60;99.90;;;;;;4997090;28;20127;-81
2022/07/17 05:19:17;;;;;;;4.70;3.10;;;11.60;99.90;;;;;;4999418;28;20280;-81
2022/07/17 05:21:42;;;;;;;5.95;3.30;;;11.80;99.90;;;;;;5013328;28;20108;-81
2022/07/17 05:24:08;;;;;;;5.90;3.10;;;11.80;99.90;;;;;;4996369;28;20083;-80
2022/07/17 05:26:33;;;;;;;5.33;3.17;;;11.80;99.90;;;;;;5030701;28;20310;-81
2022/07/17 05:28:59;;;;;;;5.13;3.03;;;11.90;99.90;;;;;;5012903;28;20045;-80
2022/07/17 05:31:25;;;;;;;6.20;3.57;;;11.90;99.90;;;;;;4996538;28;20052;-81
2022/07/17 05:33:50;;;;;;;4.33;2.97;;;11.90;99.90;;;;;;5014168;28;20295;-81
2022/07/17 05:36:16;;;;;;;7.20;3.40;;;12.00;99.90;;;;;;4999437;28;20049;-80
2022/07/17 05:38:42;;;;;;;5.28;3.30;;;12.10;99.90;;;;;;5016508;28;20633;-81
2022/07/17 05:41:07;;;;;;;5.28;3.10;;;12.10;99.90;;;;;;5016132;28;20405;-81
2022/07/17 05:43:33;;;;;;;5.53;3.22;;;12.20;99.90;;;;;;5016515;28;20029;-80
2022/07/17 05:45:59;;;;;;;5.57;2.90;;;12.30;99.90;;;;;;5015878;28;20049;-82
2022/07/17 05:48:26;;;;;;;3.92;2.90;;;12.40;99.90;;;;;;4999877;28;20307;-82
2022/07/17 05:50:52;;;;;;;7.35;3.13;;;12.50;99.90;;;;;;5016111;28;20037;-80
2022/07/17 05:53:18;;;;;;;5.93;2.90;;;12.70;99.90;;;;;;4998989;28;20532;-81
2022/07/17 05:55:44;;;;;;;4.05;2.50;;;12.80;99.90;;;;;;5016261;28;20068;-81
2022/07/17 05:58:10;;;;;;;5.25;2.90;;;13.10;99.90;;;;;;5015854;28;20112;-80
2022/07/17 06:00:36;;;;;;;8.43;3.10;;;13.40;99.90;;;;;;5016396;28;20071;-81
2022/07/17 06:03:02;;;;;;;7.35;3.10;;;13.80;99.90;;;;;;5015770;28;20084;-80
2022/07/17 06:05:28;;;;;;;6.88;2.60;;;14.40;99.90;;;;;;4999592;28;20529;-81
2022/07/17 06:07:56;;;;;;;6.40;1.98;;;15.10;99.90;;;;;;5013543;28;20069;-81
2022/07/17 06:10:22;;;;;;;4.93;1.73;;;15.60;99.90;;;;;;5015552;28;20056;-82
2022/07/17 06:12:49;;;;;;;6.28;1.80;;;16.20;99.90;;;;;;5015721;28;20041;-81
2022/07/17 06:15:15;;;;;;;5.53;1.50;;;16.70;99.90;;;;;;5015343;28;20112;-82
2022/07/17 06:17:41;;;;;;;4.90;1.75;;;17.10;99.90;;;;;;5016125;28;20112;-81
2022/07/17 06:20:07;;;;;;;7.32;1.73;;;17.40;99.90;;;;;;5015248;28;20041;-80
2022/07/17 06:22:32;;;;;;;4.05;1.30;;;17.70;99.90;;;;;;5015680;28;20087;-81
2022/07/17 06:24:58;;;;;;;6.72;1.38;;;17.90;99.90;;;;;;5015870;28;20045;-82
2022/07/17 06:27:24;;;;;;;8.57;1.20;;;18.30;99.90;;;;;;4998536;28;20045;-81
2022/07/17 06:29:50;;;;;;;3.63;1.40;;;18.60;99.90;;;;;;5003501;28;20413;-81
2022/07/17 06:32:16;;;;;;;5.35;1.30;;;18.80;99.90;;;;;;5014917;28;20116;-81
2022/07/17 06:34:42;;;;;;;3.28;1.10;;;19.10;99.90;;;;;;4999087;28;20155;-80
2022/07/17 06:37:08;;;;;;;4.07;0.93;;;19.30;99.90;;;;;;5014643;28;20029;-81
2022/07/17 06:39:33;;;;;;;4.10;1.10;;;19.30;99.90;;;;;;4999013;28;20060;-81
2022/07/17 06:41:59;;;;;;;5.82;1.20;;;19.40;99.90;;;;;;4999420;28;20037;-81
2022/07/17 06:44:25;;;;;;;4.00;1.02;;;19.20;99.90;;;;;;5014658;28;20057;-81
2022/07/17 06:46:51;;;;;;;4.15;0.95;;;18.90;99.90;;;;;;4999005;28;20052;-82
2022/07/17 06:49:16;;;;;;;4.75;1.15;;;18.60;99.90;;;;;;4998699;28;20049;-81
2022/07/17 06:51:45;;;;;;;4.00;1.00;;;18.20;99.90;;;;;;5015274;28;20049;-82
2022/07/17 06:54:15;;;;;;;6.10;0.90;;;17.90;99.90;;;;;;4988930;28;20395;-81
2022/07/17 06:56:41;;;;;;;4.60;0.80;;;17.70;99.90;;;;;;4999010;28;20048;-81
2022/07/17 06:59:07;;;;;;;2.53;0.98;;;17.50;99.90;;;;;;5014468;28;20041;-80
2022/07/17 07:01:34;;;;;;;5.70;1.20;;;17.40;99.90;;;;;;5015298;28;20504;-81
2022/07/17 07:03:59;;;;;;;4.45;0.88;;;17.30;99.90;;;;;;5015242;28;20048;-81
2022/07/17 07:06:25;;;;;;;7.22;1.30;;;17.30;99.90;;;;;;5014367;28;20129;-81
2022/07/17 07:08:51;;;;;;;4.82;1.00;;;17.20;99.90;;;;;;5015111;28;20045;-81
2022/07/17 07:11:16;;;;;;;4.63;0.93;;;17.10;99.90;;;;;;5014218;28;20046;-81
2022/07/17 07:13:42;;;;;;;3.65;0.90;;;17.00;99.90;;;;;;4998637;28;20072;-82
2022/07/17 07:16:08;;;;;;;8.75;1.10;;;16.90;99.90;;;;;;5014329;28;20041;-82
2022/07/17 07:18:34;;;;;;;2.55;0.90;;;16.90;99.90;;;;;;5014987;28;20060;-82
2022/07/17 07:20:59;;;;;;;5.20;1.05;;;16.90;99.90;;;;;;5014892;28;20493;-81
2022/07/17 07:23:25;;;;;;;4.43;0.90;;;16.90;99.90;;;;;;4998178;28;20041;-81
2022/07/17 07:25:51;;;;;;;4.97;0.93;;;16.80;99.90;;;;;;5014764;28;20041;-81
2022/07/17 07:28:17;;;;;;;5.43;0.93;;;16.80;99.90;;;;;;5014440;28;20068;-79
2022/07/17 07:30:42;;;;;;;7.28;1.27;;;16.80;99.90;;;;;;5014775;28;20057;-80
2022/07/17 07:33:08;;;;;;;2.58;0.70;;;16.90;99.90;;;;;;5014543;28;20045;-80
2022/07/17 07:35:34;;;;;;;3.60;0.90;;;16.90;99.90;;;;;;4998601;28;20033;-80
2022/07/17 07:37:59;;;;;;;5.93;1.00;;;16.90;99.90;;;;;;4998521;28;20047;-81
2022/07/17 07:40:25;;;;;;;3.13;0.80;;;17.00;99.90;;;;;;5014644;28;20092;-81
2022/07/17 07:42:51;;;;;;;4.47;1.08;;;17.00;99.90;;;;;;5020116;28;20038;-79
2022/07/17 07:45:17;;;;;;;2.78;0.88;;;17.10;99.90;;;;;;5013624;28;20049;-79
2022/07/17 07:47:49;;;;;;;3.65;1.17;;;17.20;99.90;;;;;;5014437;28;20087;-80
2022/07/17 07:50:16;;;;;;;5.18;0.95;;;17.30;99.90;;;;;;4998419;28;20049;-81
2022/07/17 07:52:42;;;;;;;5.07;1.10;;;17.40;99.90;;;;;;4998197;28;20121;-80
2022/07/17 07:55:09;;;;;;;;;;;17.50;99.90;;;;;;5016519;28;20044;-80
2022/07/17 07:57:35;;;;;;;8.15;1.08;;;17.60;99.90;;;;;;5000481;28;19924;-80
2022/07/17 08:00:01;;;;;;;7.10;1.23;;;17.70;99.90;;;;;;5014162;28;20037;-80
2022/07/17 08:02:27;;;;;;;5.55;1.05;;;17.80;99.90;;;;;;5013933;28;20056;-79
2022/07/17 08:04:52;;;;;;;4.57;1.23;;;17.90;99.90;;;;;;4998129;28;20041;-80
2022/07/17 08:07:18;;;;;;;4.50;1.02;;;18.00;99.90;;;;;;5026095;28;20056;-80
2022/07/17 08:09:43;;;;;;;3.38;0.80;;;18.10;99.90;;;;;;5015060;28;20048;-81
2022/07/17 08:12:09;;;;;;;6.03;1.10;;;18.20;99.90;;;;;;4985504;28;20048;-81
2022/07/17 08:14:35;;;;;;;4.13;1.90;;;18.40;99.90;;;;;;5014143;28;20046;-81
2022/07/17 08:17:00;;;;;;;4.53;1.15;;;18.80;99.90;;;;;;4997615;28;20033;-81
2022/07/17 08:19:26;;;;;;;5.55;1.75;;;19.40;99.90;;;;;;5013502;28;20052;-81
2022/07/17 08:21:52;;;;;;;5.13;0.98;;;19.90;99.90;;;;;;5014262;28;20045;-80
2022/07/17 08:24:17;;;;;;;4.15;0.80;;;20.30;99.90;;;;;;4981216;28;20037;-80
2022/07/17 08:26:43;;;;;;;4.68;1.45;;;20.60;99.90;;;;;;4981206;28;20095;-80
2022/07/17 08:29:09;;;;;;;3.72;0.70;;;20.90;99.90;;;;;;5013640;28;20041;-81
2022/07/17 08:31:35;;;;;;;1.88;0.70;;;21.20;99.90;;;;;;4997987;28;20053;-82
2022/07/17 08:34:01;;;;;;;4.38;0.90;;;21.50;99.90;;;;;;5013825;28;20040;-82
2022/07/17 08:36:27;;;;;;;4.60;0.68;;;21.70;99.90;;;;;;4997052;28;20052;-82
2022/07/17 08:38:52;;;;;;;7.13;1.00;;;22.00;99.90;;;;;;4997674;28;20120;-81
2022/07/17 08:41:21;;;;;;;3.42;0.70;;;22.00;99.90;;;;;;4997369;28;20033;-81
2022/07/17 08:43:48;;;;;;;4.03;0.88;;;22.30;99.90;;;;;;5014020;28;20468;-80
2022/07/17 08:46:16;;;;;;;2.90;0.57;;;22.40;99.90;;;;;;5012666;28;20083;-80
2022/07/17 08:48:45;;;;;;;3.88;0.65;;;22.40;99.90;;;;;;5013362;28;20045;-80
2022/07/17 08:51:11;;;;;;;3.70;0.50;;;22.70;99.90;;;;;;5015282;28;20029;-81
2022/07/17 08:53:37;;;;;;;;;;;22.90;99.90;;;;;;5014430;28;20047;-82
2022/07/17 08:56:03;;;;;;;2.70;0.50;;;22.90;99.90;;;;;;5014219;28;20344;-81
2022/07/17 08:58:29;;;;;;;3.85;0.50;;;23.10;99.90;;;;;;5013084;28;20041;-81
2022/07/17 09:00:55;;;;;;;2.15;0.40;;;23.40;99.90;;;;;;4997417;28;20494;-82
2022/07/17 09:03:23;;;;;;;;;;;23.80;99.90;;;;;;5013806;28;20095;-81
2022/07/17 09:05:49;;;;;;;3.85;0.70;;;24.10;99.40;;;;;;4997612;28;19943;-81
2022/07/17 09:08:23;;;;;;;4.50;0.70;;;24.20;99.70;;;;;;5013539;28;20780;-81
2022/07/17 09:10:53;;;;;;;3.63;0.50;;;24.00;98.30;;;;;;5034037;28;20120;-82
2022/07/17 09:13:30;;;;;;;3.42;0.60;;;24.10;98.90;;;;;;5017143;28;20050;-81
2022/07/17 09:16:10;;;;;;;2.92;0.60;;;24.40;99.60;;;;;;5032001;28;20144;-82
2022/07/17 09:19:02;;;;;;;3.75;0.68;;;24.80;98.90;;;;;;5035331;28;20037;-81
2022/07/17 09:21:29;;;;;;;5.38;0.68;;;25.10;97.40;;;;;;5014636;28;20049;-81
2022/07/17 09:24:04;;;;;;;1.83;0.45;;;24.70;97.60;;;;;;5017580;28;20154;-81
2022/07/17 09:26:32;;;;;;;2.35;0.40;;;25.00;97.30;;;;;;5017345;28;20516;-82
2022/07/17 09:29:00;;;;;;;1.63;0.47;;;25.00;96.90;;;;;;5001293;28;20053;-81
2022/07/17 09:31:27;;;;;;;3.55;0.55;;;25.00;97.60;;;;;;5033470;28;20052;-81
2022/07/17 09:33:53;;;;;;;3.47;0.50;;;24.90;97.10;;;;;;5017668;28;20033;-81
2022/07/17 09:36:18;;;;;;;3.08;0.70;;;25.20;97.90;;;;;;5001140;28;20088;-80
2022/07/17 09:38:44;;;;;;;2.17;0.55;;;25.50;98.20;;;;;;5017920;28;20048;-82
2022/07/17 09:41:19;;;;;;;3.00;0.40;;;25.80;97.00;;;;;;5019073;28;20049;-81
2022/07/17 09:43:52;;;;;;;2.65;0.68;;;26.10;96.50;;;;;;5018431;28;20079;-81
2022/07/17 09:46:21;;;;;;;4.10;0.60;;;26.40;95.70;;;;;;5032733;28;20413;-81
2022/07/17 09:48:58;;;;;;;2.42;0.40;;;26.40;95.30;;;;;;5032948;28;20045;-82
2022/07/17 09:51:34;;;;;;;4.40;0.73;;;26.60;95.80;;;;;;5032579;28;20037;-82
2022/07/17 09:54:02;;;;;;;2.78;0.63;;;26.40;94.90;;;;;;5018740;28;20068;-81
2022/07/17 09:56:30;;;;;;;2.95;0.57;;;26.30;95.10;;;;;;5017031;28;20091;-81
2022/07/17 09:59:04;;;;;;;1.65;0.43;;;26.30;95.70;;;;;;5017068;28;20369;-81
2022/07/17 10:01:35;;;;;;;4.57;0.50;;;26.90;96.00;;;;;;5018441;28;20494;-81
2022/07/17 10:04:03;;;;;;;2.95;0.60;;;26.80;95.20;;;;;;5019098;28;20037;-81
2022/07/17 10:06:29;;;;;;;2.60;0.60;;;26.70;95.20;;;;;;4993194;28;20041;-80
2022/07/17 10:08:55;;;;;;;2.92;0.80;;;26.70;95.60;;;;;;5033621;28;20081;-81
2022/07/17 10:11:22;;;;;;;2.17;0.50;;;27.00;96.10;;;;;;4999919;28;20132;-81
2022/07/17 10:13:51;;;;;;;3.35;0.60;;;27.00;95.40;;;;;;5017159;28;20117;-82
2022/07/17 10:16:29;;;;;;;2.53;0.60;;;27.00;94.70;;;;;;5016870;28;20124;-81
2022/07/17 10:18:57;;;;;;;2.50;0.60;;;27.10;94.10;;;;;;5011655;28;20510;-82
2022/07/17 10:21:24;;;;;;;2.72;0.60;;;27.20;94.40;;;;;;5015086;28;20091;-80
2022/07/17 10:23:53;;;;;;;3.10;0.80;;;27.20;94.20;;;;;;5000606;28;20037;-80
2022/07/17 10:26:38;;;;;;;2.15;0.60;;;27.50;94.50;;;;;;5016523;28;20072;-80
2022/07/17 10:29:08;;;;;;;2.55;0.70;;;27.70;94.00;;;;;;5004805;28;20034;-81
2022/07/17 10:31:34;;;;;;;2.70;0.73;;;27.90;93.30;;;;;;5016564;28;20049;-80
2022/07/17 10:34:05;;;;;;;1.63;0.50;;;27.80;93.00;;;;;;5000521;28;20478;-81
2022/07/17 10:36:38;;;;;;;1.90;0.60;;;27.70;93.50;;;;;;5016313;28;20038;-81
2022/07/17 10:39:13;;;;;;;4.22;0.70;;;27.80;93.10;;;;;;5015077;28;20044;-80
2022/07/17 10:41:40;;;;;;;3.30;0.50;;;28.10;93.00;;;;;;5016264;28;20506;-80
2022/07/17 10:44:05;;;;;;;1.73;0.60;;;27.90;93.00;;;;;;5016402;28;20045;-81
2022/07/17 10:46:31;;;;;;;2.92;0.70;;;28.10;93.30;;;;;;5015975;28;20104;-80
2022/07/17 10:48:57;;;;;;;2.40;0.47;;;28.10;92.40;;;;;;5016602;28;20121;-81
2022/07/17 10:51:27;;;;;;;2.00;0.55;;;28.00;92.70;;;;;;5015574;28;20443;-81
2022/07/17 10:53:58;;;;;;;1.40;0.50;;;27.90;92.70;;;;;;5016128;28;20063;-82
2022/07/17 10:56:25;;;;;;;2.75;0.77;;;27.90;93.40;;;;;;5015828;28;20037;-80
2022/07/17 10:58:52;;;;;;;2.03;0.80;;;28.50;93.20;;;;;;5016147;28;20167;-80
2022/07/17 11:01:22;;;;;;;1.88;0.60;;;28.70;92.40;;;;;;4999767;28;20037;-81
2022/07/17 11:03:53;;;;;;;3.80;0.63;;;28.90;92.60;;;;;;5016071;28;20045;-81
2022/07/17 11:06:24;;;;;;;4.30;0.50;;;29.00;92.70;;;;;;5015850;28;20052;-80
2022/07/17 11:09:00;;;;;;;6.78;0.93;;;28.90;93.30;;;;;;5016246;28;20047;-81
2022/07/17 11:11:37;;;;;;;2.17;0.40;;;28.80;93.00;;;;;;5015574;28;20164;-81
2022/07/17 11:14:18;;;;;;;1.35;0.50;;;28.80;93.60;;;;;;5015804;28;20042;-81
2022/07/17 11:16:49;;;;;;;3.10;0.50;;;28.70;93.00;;;;;;5015646;28;20037;-81
2022/07/17 11:19:33;;;;;;;2.67;0.70;;;28.90;92.50;;;;;;5015789;28;20497;-81
2022/07/17 11:22:01;;;;;;;2.35;0.60;;;28.70;92.80;;;;;;5015880;28;21325;-80
2022/07/17 11:24:42;;;;;;;2.35;0.50;;;28.40;92.70;;;;;;5015404;28;20045;-80
2022/07/17 11:27:13;;;;;;;2.13;0.70;;;27.80;92.80;;;;;;5000284;28;20485;-80
2022/07/17 11:29:43;;;;;;;1.63;0.75;;;28.10;92.70;;;;;;5014781;28;20045;-79
2022/07/17 11:32:09;;;;;;;1.58;0.70;;;28.10;93.30;;;;;;5014540;28;20041;-79
2022/07/17 11:34:35;;;;;;;2.33;0.70;;;28.30;92.90;;;;;;5031741;28;20045;-80
2022/07/17 11:37:06;;;;;;;2.25;0.70;;;28.70;93.20;;;;;;5015596;28;20037;-79
2022/07/17 11:39:46;;;;;;;2.40;0.73;;;29.10;93.20;;;;;;5015521;28;20061;-81
2022/07/17 11:42:21;;;;;;;2.67;0.65;;;29.10;92.10;;;;;;4999226;28;20037;-80
2022/07/17 11:44:50;;;;;;;3.10;0.60;;;29.20;92.10;;;;;;4996454;28;20544;-83
2022/07/17 11:47:21;;;;;;;2.08;0.70;;;29.20;92.10;;;;;;5015066;28;20045;-82
2022/07/17 11:49:47;;;;;;;2.75;0.63;;;29.30;92.70;;;;;;5031092;28;20029;-80
2022/07/17 11:52:15;;;;;;;1.58;0.60;;;29.70;92.60;;;;;;4979446;28;20100;-81
2022/07/17 11:54:55;;;;;;;1.30;0.52;;;29.40;92.20;;;;;;5014357;28;20116;-80
2022/07/17 11:57:23;;;;;;;2.55;0.65;;;29.70;91.60;;;;;;4996390;28;20129;-78
2022/07/17 11:59:51;;;;;;;2.28;0.80;;;29.70;91.70;;;;;;5013407;28;20045;-78
2022/07/17 12:02:20;;;;;;;2.20;0.65;;;29.80;91.70;;;;;;5016339;28;20052;-79
2022/07/17 12:04:50;;;;;;;3.35;0.80;;;29.30;91.90;;;;;;5013712;28;20079;-77
2022/07/17 12:07:16;;;;;;;3.63;0.70;;;29.40;92.80;;;;;;5012651;28;20092;-79
2022/07/17 12:09:42;;;;;;;4.20;1.17;;;29.50;92.40;;;;;;5012699;28;20050;-79
2022/07/17 12:12:22;;;;;;;2.92;0.77;;;29.50;92.10;;;;;;4997078;28;20604;-80
2022/07/17 12:14:56;;;;;;;1.98;1.50;;;29.70;92.40;;;;;;5029888;28;20116;-81
2022/07/17 12:17:22;;;;;;;1.55;0.70;;;29.90;92.20;;;;;;5014094;28;20044;-80
2022/07/17 12:19:48;;;;;;;2.55;0.65;;;30.20;93.30;;;;;;5013373;28;20042;-83
2022/07/17 12:22:14;;;;;;;2.58;0.90;;;30.60;92.20;;;;;;5013308;28;20045;-83
2022/07/17 12:24:41;;;;;;;5.00;1.58;;;30.70;92.90;;;;;;5013403;28;20048;-80
2022/07/17 12:27:10;;;;;;;2.58;0.80;;;30.60;92.50;;;;;;4997606;28;20560;-79
2022/07/17 12:29:36;;;;;;;2.25;1.00;;;30.60;91.90;;;;;;5013387;28;20525;-80
2022/07/17 12:32:05;;;;;;;3.13;0.80;;;30.50;91.30;;;;;;5013935;28;20045;-81
2022/07/17 12:34:31;;;;;;;2.22;0.90;;;30.40;92.40;;;;;;4981232;28;20021;-80
2022/07/17 12:36:57;;;;;;;4.57;1.00;;;30.50;92.10;;;;;;5013597;28;20436;-80
2022/07/17 12:39:22;;;;;;;1.95;0.73;;;30.50;91.80;;;;;;5012913;28;20037;-79
2022/07/17 12:41:48;;;;;;;1.70;0.80;;;30.70;92.50;;;;;;4996545;28;20030;-79
2022/07/17 12:44:14;;;;;;;1.75;0.80;;;30.80;91.70;;;;;;5015111;28;20041;-80
2022/07/17 12:46:39;;;;;;;3.03;1.00;;;30.70;91.50;;;;;;5005504;28;20061;-89
2022/07/17 12:49:05;;;;;;;2.58;0.95;;;30.70;90.80;;;;;;5022350;28;20076;-83